sensor_id;sensor_type;location;lat;lon;timestamp;pressure;altitude;pressure_sealevel;temperature;humidity
33845;BME280;20145;43.118;25.694;2023-01-31T00:01:13;98987.91;;;0.84;83.18
33845;BME280;20145;43.118;25.694;2023-01-31T00:03:39;98992.13;;;0.84;82.54
33845;BME280;20145;43.118;25.694;2023-01-31T00:06:18;98993.78;;;0.82;82.12
33845;BME280;20145;43.118;25.694;2023-01-31T00:08:45;98977.59;;;0.77;82.46
33845;BME280;20145;43.118;25.694;2023-01-31T00:11:11;98979.50;;;0.88;83.01
33845;BME280;20145;43.118;25.694;2023-01-31T00:13:37;98978.88;;;0.99;82.24
33845;BME280;20145;43.118;25.694;2023-01-31T00:16:03;98970.56;;;1.07;81.06
33845;BME280;20145;43.118;25.694;2023-01-31T00:18:29;98975.66;;;1.07;80.93
33845;BME280;20145;43.118;25.694;2023-01-31T00:20:54;98984.22;;;1.11;79.87
33845;BME280;20145;43.118;25.694;2023-01-31T00:23:20;98975.75;;;1.14;79.39
33845;BME280;20145;43.118;25.694;2023-01-31T00:25:46;98974.16;;;1.17;79.93
33845;BME280;20145;43.118;25.694;2023-01-31T00:28:12;98967.47;;;1.22;78.11
33845;BME280;20145;43.118;25.694;2023-01-31T00:30:37;98967.53;;;1.25;79.38
33845;BME280;20145;43.118;25.694;2023-01-31T00:33:03;98968.19;;;1.15;79.47
33845;BME280;20145;43.118;25.694;2023-01-31T00:35:29;98974.34;;;1.29;78.05
33845;BME280;20145;43.118;25.694;2023-01-31T00:37:54;98972.63;;;1.27;78.55
33845;BME280;20145;43.118;25.694;2023-01-31T00:40:20;98961.50;;;1.20;79.29
33845;BME280;20145;43.118;25.694;2023-01-31T00:42:45;98966.84;;;1.36;78.96
33845;BME280;20145;43.118;25.694;2023-01-31T00:45:11;98961.91;;;1.43;76.59
33845;BME280;20145;43.118;25.694;2023-01-31T00:47:37;98966.13;;;1.43;76.41
33845;BME280;20145;43.118;25.694;2023-01-31T00:50:03;98967.00;;;1.45;77.03
33845;BME280;20145;43.118;25.694;2023-01-31T00:52:29;98973.03;;;1.50;76.80
33845;BME280;20145;43.118;25.694;2023-01-31T00:54:54;98970.53;;;1.53;76.25
33845;BME280;20145;43.118;25.694;2023-01-31T00:57:20;98973.09;;;1.53;76.17
33845;BME280;20145;43.118;25.694;2023-01-31T00:59:45;98979.16;;;1.63;75.60
33845;BME280;20145;43.118;25.694;2023-01-31T01:02:11;98982.78;;;1.75;74.19
33845;BME280;20145;43.118;25.694;2023-01-31T01:04:36;98976.88;;;1.78;74.15
33845;BME280;20145;43.118;25.694;2023-01-31T01:07:02;98982.81;;;1.78;73.90
33845;BME280;20145;43.118;25.694;2023-01-31T01:09:28;98986.34;;;1.87;74.67
33845;BME280;20145;43.118;25.694;2023-01-31T01:11:53;98996.47;;;1.84;74.07
33845;BME280;20145;43.118;25.694;2023-01-31T01:14:19;98998.22;;;1.86;74.51
33845;BME280;20145;43.118;25.694;2023-01-31T01:16:44;99000.75;;;1.86;75.09
33845;BME280;20145;43.118;25.694;2023-01-31T01:19:18;99001.66;;;1.90;75.21
33845;BME280;20145;43.118;25.694;2023-01-31T01:21:44;98999.16;;;1.93;75.51
33845;BME280;20145;43.118;25.694;2023-01-31T01:24:15;99001.03;;;2.03;76.36
33845;BME280;20145;43.118;25.694;2023-01-31T01:26:42;98998.44;;;2.00;78.11
33845;BME280;20145;43.118;25.694;2023-01-31T01:29:08;98990.66;;;1.92;79.27
33845;BME280;20145;43.118;25.694;2023-01-31T01:31:34;98993.13;;;1.88;79.54
33845;BME280;20145;43.118;25.694;2023-01-31T01:34:07;98990.72;;;1.95;78.32
33845;BME280;20145;43.118;25.694;2023-01-31T01:36:36;98985.63;;;1.95;78.31
33845;BME280;20145;43.118;25.694;2023-01-31T01:39:03;98994.19;;;2.00;77.76
33845;BME280;20145;43.118;25.694;2023-01-31T01:41:30;98986.59;;;2.04;77.38
33845;BME280;20145;43.118;25.694;2023-01-31T01:43:59;98983.25;;;2.06;77.37
33845;BME280;20145;43.118;25.694;2023-01-31T01:46:41;98985.81;;;2.08;78.33
33845;BME280;20145;43.118;25.694;2023-01-31T01:51:48;98983.38;;;2.15;79.45
33845;BME280;20145;43.118;25.694;2023-01-31T01:54:20;98985.81;;;2.08;81.29
33845;BME280;20145;43.118;25.694;2023-01-31T01:56:50;98942.31;;;1.89;81.76
33845;BME280;20145;43.118;25.694;2023-01-31T01:59:24;98961.13;;;2.00;82.37
33845;BME280;20145;43.118;25.694;2023-01-31T02:01:54;98958.56;;;2.00;83.21
33845;BME280;20145;43.118;25.694;2023-01-31T02:04:25;98962.78;;;1.97;83.43
33845;BME280;20145;43.118;25.694;2023-01-31T02:06:52;98959.44;;;2.01;82.83
33845;BME280;20145;43.118;25.694;2023-01-31T02:09:29;98956.75;;;1.93;83.35
33845;BME280;20145;43.118;25.694;2023-01-31T02:11:57;98956.78;;;1.95;84.12
33845;BME280;20145;43.118;25.694;2023-01-31T02:14:23;98963.47;;;1.88;83.71
33845;BME280;20145;43.118;25.694;2023-01-31T02:16:49;98961.03;;;1.94;84.07
33845;BME280;20145;43.118;25.694;2023-01-31T02:38:47;98966.50;;;1.66;89.83
33845;BME280;20145;43.118;25.694;2023-01-31T02:41:34;98969.13;;;1.70;90.22
33845;BME280;20145;43.118;25.694;2023-01-31T02:44:23;98970.81;;;1.70;87.80
33845;BME280;20145;43.118;25.694;2023-01-31T02:50:59;98974.41;;;1.83;85.15
33845;BME280;20145;43.118;25.694;2023-01-31T02:53:35;98968.66;;;1.94;83.95
33845;BME280;20145;43.118;25.694;2023-01-31T02:56:33;98969.53;;;1.95;83.48
33845;BME280;20145;43.118;25.694;2023-01-31T02:59:19;98968.00;;;2.08;80.30
33845;BME280;20145;43.118;25.694;2023-01-31T03:01:53;98972.34;;;2.15;78.84
33845;BME280;20145;43.118;25.694;2023-01-31T03:04:20;98980.91;;;2.20;77.73
33845;BME280;20145;43.118;25.694;2023-01-31T03:12:16;98979.28;;;2.27;74.32
33845;BME280;20145;43.118;25.694;2023-01-31T03:23:12;98999.38;;;2.67;69.78
33845;BME280;20145;43.118;25.694;2023-01-31T03:25:39;99000.88;;;2.55;69.35
33845;BME280;20145;43.118;25.694;2023-01-31T03:28:09;99001.00;;;2.62;69.57
33845;BME280;20145;43.118;25.694;2023-01-31T03:30:42;98996.78;;;2.66;68.05
33845;BME280;20145;43.118;25.694;2023-01-31T03:33:15;98989.03;;;2.55;68.54
33845;BME280;20145;43.118;25.694;2023-01-31T03:35:41;99002.72;;;2.65;67.79
33845;BME280;20145;43.118;25.694;2023-01-31T03:38:16;98996.75;;;2.63;66.88
33845;BME280;20145;43.118;25.694;2023-01-31T03:44:06;99002.03;;;2.75;66.69
33845;BME280;20145;43.118;25.694;2023-01-31T03:46:58;99004.53;;;2.72;66.33
33845;BME280;20145;43.118;25.694;2023-01-31T03:49:26;99006.28;;;2.76;67.04
33845;BME280;20145;43.118;25.694;2023-01-31T03:51:59;99011.44;;;2.81;68.09
33845;BME280;20145;43.118;25.694;2023-01-31T03:54:39;99010.50;;;2.76;67.87
33845;BME280;20145;43.118;25.694;2023-01-31T03:57:33;99014.66;;;2.67;68.01
33845;BME280;20145;43.118;25.694;2023-01-31T03:59:59;99016.28;;;2.62;67.99
33845;BME280;20145;43.118;25.694;2023-01-31T04:02:33;99016.94;;;2.49;68.05
33845;BME280;20145;43.118;25.694;2023-01-31T04:07:29;99028.13;;;2.59;68.98
33845;BME280;20145;43.118;25.694;2023-01-31T04:09:55;99027.19;;;2.54;69.27
33845;BME280;20145;43.118;25.694;2023-01-31T04:12:21;99035.81;;;2.62;68.54
33845;BME280;20145;43.118;25.694;2023-01-31T04:14:46;99031.50;;;2.58;69.61
33845;BME280;20145;43.118;25.694;2023-01-31T04:17:12;99034.19;;;2.67;70.33
33845;BME280;20145;43.118;25.694;2023-01-31T04:19:37;99031.59;;;2.64;70.81
33845;BME280;20145;43.118;25.694;2023-01-31T04:22:03;99044.31;;;2.64;71.23
33845;BME280;20145;43.118;25.694;2023-01-31T04:24:29;99040.03;;;2.61;70.73
33845;BME280;20145;43.118;25.694;2023-01-31T04:26:54;99044.31;;;2.64;71.53
33845;BME280;20145;43.118;25.694;2023-01-31T04:29:20;99049.31;;;2.56;71.69
33845;BME280;20145;43.118;25.694;2023-01-31T04:31:45;99041.75;;;2.62;72.08
33845;BME280;20145;43.118;25.694;2023-01-31T04:34:11;99022.97;;;2.54;72.13
33845;BME280;20145;43.118;25.694;2023-01-31T04:36:37;99036.66;;;2.61;73.21
33845;BME280;20145;43.118;25.694;2023-01-31T04:39:03;99045.13;;;2.61;73.17
33845;BME280;20145;43.118;25.694;2023-01-31T04:41:29;99044.28;;;2.62;74.33
33845;BME280;20145;43.118;25.694;2023-01-31T04:43:54;99045.06;;;2.55;75.05
33845;BME280;20145;43.118;25.694;2023-01-31T04:46:20;99038.28;;;2.57;75.90
33845;BME280;20145;43.118;25.694;2023-01-31T04:48:46;99048.50;;;2.59;76.10
33845;BME280;20145;43.118;25.694;2023-01-31T04:51:11;99045.88;;;2.53;76.21
33845;BME280;20145;43.118;25.694;2023-01-31T04:53:37;99045.84;;;2.51;76.76
33845;BME280;20145;43.118;25.694;2023-01-31T04:56:03;99041.69;;;2.58;76.15
33845;BME280;20145;43.118;25.694;2023-01-31T04:58:30;99056.81;;;2.49;77.68
33845;BME280;20145;43.118;25.694;2023-01-31T05:00:55;99052.75;;;2.58;77.24
33845;BME280;20145;43.118;25.694;2023-01-31T05:03:21;99053.53;;;2.56;76.87
33845;BME280;20145;43.118;25.694;2023-01-31T05:05:47;99056.81;;;2.49;78.42
33845;BME280;20145;43.118;25.694;2023-01-31T05:08:13;99060.22;;;2.48;77.91
33845;BME280;20145;43.118;25.694;2023-01-31T05:10:39;99066.16;;;2.48;77.83
33845;BME280;20145;43.118;25.694;2023-01-31T05:13:05;99046.59;;;2.45;78.59
33845;BME280;20145;43.118;25.694;2023-01-31T05:15:31;99069.63;;;2.55;78.73
33845;BME280;20145;43.118;25.694;2023-01-31T05:17:57;99061.03;;;2.46;78.03
33845;BME280;20145;43.118;25.694;2023-01-31T05:20:30;99062.75;;;2.48;78.97
33845;BME280;20145;43.118;25.694;2023-01-31T05:22:56;99069.59;;;2.52;78.76
33845;BME280;20145;43.118;25.694;2023-01-31T05:25:23;99077.28;;;2.55;78.86
33845;BME280;20145;43.118;25.694;2023-01-31T05:27:49;99080.63;;;2.52;78.86
33845;BME280;20145;43.118;25.694;2023-01-31T05:30:15;99082.31;;;2.50;79.52
33845;BME280;20145;43.118;25.694;2023-01-31T05:32:41;99080.63;;;2.51;79.44
33845;BME280;20145;43.118;25.694;2023-01-31T05:35:10;99090.81;;;2.51;80.43
33845;BME280;20145;43.118;25.694;2023-01-31T05:37:36;99080.63;;;2.51;79.58
33845;BME280;20145;43.118;25.694;2023-01-31T05:40:02;99086.56;;;2.51;79.92
33845;BME280;20145;43.118;25.694;2023-01-31T05:42:27;99082.19;;;2.42;81.24
33845;BME280;20145;43.118;25.694;2023-01-31T05:44:53;99073.84;;;2.51;80.96
33845;BME280;20145;43.118;25.694;2023-01-31T05:47:18;99077.28;;;2.53;80.73
33845;BME280;20145;43.118;25.694;2023-01-31T05:49:44;99089.16;;;2.54;80.89
33845;BME280;20145;43.118;25.694;2023-01-31T05:52:09;99093.38;;;2.52;80.72
33845;BME280;20145;43.118;25.694;2023-01-31T05:54:35;99090.97;;;2.61;80.61
33845;BME280;20145;43.118;25.694;2023-01-31T05:57:00;99103.81;;;2.69;80.99
33845;BME280;20145;43.118;25.694;2023-01-31T05:59:26;99109.53;;;2.54;81.26
33845;BME280;20145;43.118;25.694;2023-01-31T06:01:54;99113.69;;;2.49;82.11
33845;BME280;20145;43.118;25.694;2023-01-31T06:04:20;99107.75;;;2.47;81.70
33845;BME280;20145;43.118;25.694;2023-01-31T06:06:45;99099.28;;;2.50;81.52
33845;BME280;20145;43.118;25.694;2023-01-31T06:09:11;99108.59;;;2.49;82.86
33845;BME280;20145;43.118;25.694;2023-01-31T06:11:37;99103.47;;;2.46;82.24
33845;BME280;20145;43.118;25.694;2023-01-31T06:14:02;99112.78;;;2.44;82.50
33845;BME280;20145;43.118;25.694;2023-01-31T06:16:28;99125.59;;;2.50;82.79
33845;BME280;20145;43.118;25.694;2023-01-31T06:18:53;99110.25;;;2.44;83.55
33845;BME280;20145;43.118;25.694;2023-01-31T06:21:20;99126.41;;;2.49;83.17
33845;BME280;20145;43.118;25.694;2023-01-31T06:23:46;99127.09;;;2.37;82.72
33845;BME280;20145;43.118;25.694;2023-01-31T06:26:12;99113.47;;;2.35;83.65
33845;BME280;20145;43.118;25.694;2023-01-31T06:28:38;99127.09;;;2.37;83.40
33845;BME280;20145;43.118;25.694;2023-01-31T06:31:10;99114.44;;;2.42;82.43
33845;BME280;20145;43.118;25.694;2023-01-31T06:33:35;99131.47;;;2.46;83.19
33845;BME280;20145;43.118;25.694;2023-01-31T06:36:01;99137.47;;;2.50;82.88
33845;BME280;20145;43.118;25.694;2023-01-31T06:38:27;99122.09;;;2.43;82.64
33845;BME280;20145;43.118;25.694;2023-01-31T06:40:53;99110.94;;;2.35;83.25
33845;BME280;20145;43.118;25.694;2023-01-31T06:43:19;99129.72;;;2.43;83.58
33845;BME280;20145;43.118;25.694;2023-01-31T06:45:44;99132.44;;;2.54;82.79
33845;BME280;20145;43.118;25.694;2023-01-31T06:48:10;99135.91;;;2.58;83.06
33845;BME280;20145;43.118;25.694;2023-01-31T06:50:36;99147.72;;;2.54;82.79
33845;BME280;20145;43.118;25.694;2023-01-31T06:53:01;99145.22;;;2.57;83.15
33845;BME280;20145;43.118;25.694;2023-01-31T06:55:27;99147.84;;;2.62;82.52
33845;BME280;20145;43.118;25.694;2023-01-31T06:57:52;99147.88;;;2.65;82.87
33845;BME280;20145;43.118;25.694;2023-01-31T07:00:20;99159.88;;;2.71;81.48
33845;BME280;20145;43.118;25.694;2023-01-31T07:02:46;99157.09;;;2.55;82.51
33845;BME280;20145;43.118;25.694;2023-01-31T07:05:12;99156.34;;;2.62;82.59
33845;BME280;20145;43.118;25.694;2023-01-31T07:07:38;99168.94;;;2.55;82.08
33845;BME280;20145;43.118;25.694;2023-01-31T07:10:04;99165.72;;;2.65;83.29
33845;BME280;20145;43.118;25.694;2023-01-31T07:12:29;99163.16;;;2.63;82.36
33845;BME280;20145;43.118;25.694;2023-01-31T07:14:55;99170.00;;;2.67;82.75
33845;BME280;20145;43.118;25.694;2023-01-31T07:17:20;99169.94;;;2.63;83.37
33845;BME280;20145;43.118;25.694;2023-01-31T07:19:46;99175.81;;;2.59;83.80
33845;BME280;20145;43.118;25.694;2023-01-31T07:22:12;99170.72;;;2.60;83.78
33845;BME280;20145;43.118;25.694;2023-01-31T07:24:37;99173.44;;;2.71;82.68
33845;BME280;20145;43.118;25.694;2023-01-31T07:27:03;99172.47;;;2.61;83.05
33845;BME280;20145;43.118;25.694;2023-01-31T07:29:28;99153.78;;;2.62;82.43
33845;BME280;20145;43.118;25.694;2023-01-31T07:31:54;99170.81;;;2.65;83.15
33845;BME280;20145;43.118;25.694;2023-01-31T07:34:20;99166.66;;;2.70;82.89
33845;BME280;20145;43.118;25.694;2023-01-31T07:36:48;99155.66;;;2.74;82.50
33845;BME280;20145;43.118;25.694;2023-01-31T07:39:14;99165.97;;;2.82;82.99
33845;BME280;20145;43.118;25.694;2023-01-31T07:41:40;99174.75;;;3.01;82.04
33845;BME280;20145;43.118;25.694;2023-01-31T07:44:06;99179.81;;;2.98;82.62
33845;BME280;20145;43.118;25.694;2023-01-31T07:46:33;99183.41;;;3.12;81.34
33845;BME280;20145;43.118;25.694;2023-01-31T07:48:59;99186.75;;;3.08;81.22
33845;BME280;20145;43.118;25.694;2023-01-31T07:51:26;99176.56;;;3.08;81.84
33845;BME280;20145;43.118;25.694;2023-01-31T07:53:51;99177.28;;;3.01;82.47
33845;BME280;20145;43.118;25.694;2023-01-31T07:56:19;99177.38;;;3.07;82.70
33845;BME280;20145;43.118;25.694;2023-01-31T07:58:46;99178.31;;;3.12;81.23
33845;BME280;20145;43.118;25.694;2023-01-31T08:01:22;99183.53;;;3.20;82.22
33845;BME280;20145;43.118;25.694;2023-01-31T08:04:08;99202.38;;;3.31;81.20
33845;BME280;20145;43.118;25.694;2023-01-31T08:06:34;99188.63;;;3.21;80.88
33845;BME280;20145;43.118;25.694;2023-01-31T08:09:01;99177.66;;;3.25;81.43
33845;BME280;20145;43.118;25.694;2023-01-31T08:11:27;99193.97;;;3.40;80.74
33845;BME280;20145;43.118;25.694;2023-01-31T08:13:53;99188.88;;;3.38;81.53
33845;BME280;20145;43.118;25.694;2023-01-31T08:16:18;99201.47;;;3.27;81.10
33845;BME280;20145;43.118;25.694;2023-01-31T08:18:46;99196.50;;;3.37;81.21
33845;BME280;20145;43.118;25.694;2023-01-31T08:21:12;99200.59;;;3.27;81.31
33845;BME280;20145;43.118;25.694;2023-01-31T08:23:38;99199.94;;;3.39;81.22
33845;BME280;20145;43.118;25.694;2023-01-31T08:26:10;99214.63;;;3.60;80.87
33845;BME280;20145;43.118;25.694;2023-01-31T08:28:37;99211.97;;;3.52;81.40
33845;BME280;20145;43.118;25.694;2023-01-31T08:31:04;99224.69;;;3.47;81.26
33845;BME280;20145;43.118;25.694;2023-01-31T08:33:29;99223.19;;;3.63;80.72
33845;BME280;20145;43.118;25.694;2023-01-31T08:35:55;99223.88;;;3.51;80.97
33845;BME280;20145;43.118;25.694;2023-01-31T08:38:20;99218.72;;;3.47;80.67
33845;BME280;20145;43.118;25.694;2023-01-31T08:40:46;99227.19;;;3.46;81.70
33845;BME280;20145;43.118;25.694;2023-01-31T08:43:12;99222.13;;;3.49;81.94
33845;BME280;20145;43.118;25.694;2023-01-31T08:45:38;99220.41;;;3.46;82.19
33845;BME280;20145;43.118;25.694;2023-01-31T08:48:04;99226.38;;;3.47;81.83
33845;BME280;20145;43.118;25.694;2023-01-31T08:50:31;99227.94;;;3.37;82.52
33845;BME280;20145;43.118;25.694;2023-01-31T08:52:58;99228.78;;;3.36;82.09
33845;BME280;20145;43.118;25.694;2023-01-31T08:55:25;99227.97;;;3.40;82.54
33845;BME280;20145;43.118;25.694;2023-01-31T08:57:52;99220.38;;;3.43;82.96
33845;BME280;20145;43.118;25.694;2023-01-31T09:00:19;99229.91;;;3.55;81.88
33845;BME280;20145;43.118;25.694;2023-01-31T09:02:53;99226.53;;;3.59;81.34
33845;BME280;20145;43.118;25.694;2023-01-31T09:05:19;99222.94;;;3.46;82.36
33845;BME280;20145;43.118;25.694;2023-01-31T09:07:45;99226.63;;;3.67;82.16
33845;BME280;20145;43.118;25.694;2023-01-31T09:10:10;99222.16;;;3.50;81.91
33845;BME280;20145;43.118;25.694;2023-01-31T09:12:36;99224.88;;;3.61;82.14
33845;BME280;20145;43.118;25.694;2023-01-31T09:15:02;99212.13;;;3.61;81.76
33845;BME280;20145;43.118;25.694;2023-01-31T09:17:28;99213.06;;;3.71;82.45
33845;BME280;20145;43.118;25.694;2023-01-31T09:19:54;99208.00;;;3.72;81.70
33845;BME280;20145;43.118;25.694;2023-01-31T09:22:20;99211.59;;;3.88;81.90
33845;BME280;20145;43.118;25.694;2023-01-31T09:24:47;99212.53;;;3.98;81.64
33845;BME280;20145;43.118;25.694;2023-01-31T09:27:13;99203.13;;;3.92;80.39
33845;BME280;20145;43.118;25.694;2023-01-31T09:29:38;99201.59;;;4.08;81.10
33845;BME280;20145;43.118;25.694;2023-01-31T09:32:04;99218.06;;;4.36;80.84
33845;BME280;20145;43.118;25.694;2023-01-31T09:34:30;99212.19;;;4.43;79.67
33845;BME280;20145;43.118;25.694;2023-01-31T09:36:56;99206.03;;;4.26;79.88
33845;BME280;20145;43.118;25.694;2023-01-31T09:39:22;99213.72;;;4.28;80.08
33845;BME280;20145;43.118;25.694;2023-01-31T09:41:54;99206.72;;;4.13;81.70
33845;BME280;20145;43.118;25.694;2023-01-31T09:46:53;99210.41;;;4.39;79.69
33845;BME280;20145;43.118;25.694;2023-01-31T09:49:23;99197.53;;;4.27;79.90
33845;BME280;20145;43.118;25.694;2023-01-31T09:52:01;99196.75;;;4.37;79.50
33845;BME280;20145;43.118;25.694;2023-01-31T09:54:34;99187.47;;;4.45;79.26
33845;BME280;20145;43.118;25.694;2023-01-31T10:02:44;99208.06;;;4.62;78.17
33845;BME280;20145;43.118;25.694;2023-01-31T10:11:10;99202.78;;;4.42;79.62
33845;BME280;20145;43.118;25.694;2023-01-31T10:13:42;99203.59;;;4.40;80.17
33845;BME280;20145;43.118;25.694;2023-01-31T10:16:28;99190.06;;;4.52;79.29
33845;BME280;20145;43.118;25.694;2023-01-31T10:19:12;99187.56;;;4.53;78.89
33845;BME280;20145;43.118;25.694;2023-01-31T10:21:46;99190.06;;;4.48;78.27
33845;BME280;20145;43.118;25.694;2023-01-31T10:26:51;99178.91;;;4.36;79.52
33845;BME280;20145;43.118;25.694;2023-01-31T10:29:36;99166.13;;;4.37;78.38
33845;BME280;20145;43.118;25.694;2023-01-31T10:32:14;99176.41;;;4.43;78.56
33845;BME280;20145;43.118;25.694;2023-01-31T10:34:50;99171.22;;;4.33;79.00
33845;BME280;20145;43.118;25.694;2023-01-31T10:37:43;99175.34;;;4.20;80.13
33845;BME280;20145;43.118;25.694;2023-01-31T10:40:43;99181.25;;;4.16;80.21
33845;BME280;20145;43.118;25.694;2023-01-31T10:43:15;99170.25;;;4.23;79.63
33845;BME280;20145;43.118;25.694;2023-01-31T10:45:43;99170.16;;;4.15;80.52
33845;BME280;20145;43.118;25.694;2023-01-31T10:48:15;99170.19;;;4.17;79.85
33845;BME280;20145;43.118;25.694;2023-01-31T10:56:55;99166.88;;;4.25;79.17
33845;BME280;20145;43.118;25.694;2023-01-31T10:59:48;99155.75;;;4.20;78.54
33845;BME280;20145;43.118;25.694;2023-01-31T11:02:25;99151.56;;;4.29;78.18
33845;BME280;20145;43.118;25.694;2023-01-31T11:04:53;99157.56;;;4.32;77.72
33845;BME280;20145;43.118;25.694;2023-01-31T11:07:19;99156.63;;;4.19;79.13
33845;BME280;20145;43.118;25.694;2023-01-31T11:09:53;99155.78;;;4.22;80.13
33845;BME280;20145;43.118;25.694;2023-01-31T11:12:20;99152.44;;;4.28;79.85
33845;BME280;20145;43.118;25.694;2023-01-31T11:15:16;99148.97;;;4.22;79.99
33845;BME280;20145;43.118;25.694;2023-01-31T11:17:44;99147.34;;;4.32;79.95
33845;BME280;20145;43.118;25.694;2023-01-31T11:20:31;99147.44;;;4.41;80.15
33845;BME280;20145;43.118;25.694;2023-01-31T11:23:00;99139.03;;;4.53;79.96
33845;BME280;20145;43.118;25.694;2023-01-31T11:25:28;99145.00;;;4.57;79.70
33845;BME280;20145;43.118;25.694;2023-01-31T11:27:59;99141.56;;;4.50;79.68
33845;BME280;20145;43.118;25.694;2023-01-31T11:30:34;99138.97;;;4.48;80.27
33845;BME280;20145;43.118;25.694;2023-01-31T11:33:00;99144.06;;;4.45;78.95
33845;BME280;20145;43.118;25.694;2023-01-31T11:35:31;99147.44;;;4.38;79.79
33845;BME280;20145;43.118;25.694;2023-01-31T11:40:37;99143.38;;;4.66;79.36
33845;BME280;20145;43.118;25.694;2023-01-31T11:43:22;99140.06;;;4.77;79.64
33845;BME280;20145;43.118;25.694;2023-01-31T11:45:59;99145.19;;;4.83;79.65
33845;BME280;20145;43.118;25.694;2023-01-31T11:48:37;99140.13;;;4.89;78.90
33845;BME280;20145;43.118;25.694;2023-01-31T11:51:05;99140.16;;;4.98;79.52
33845;BME280;20145;43.118;25.694;2023-01-31T11:53:45;99136.00;;;5.12;78.69
33845;BME280;20145;43.118;25.694;2023-01-31T11:58:40;99134.34;;;5.19;78.28
33845;BME280;20145;43.118;25.694;2023-01-31T12:01:16;99136.03;;;5.17;79.07
33845;BME280;20145;43.118;25.694;2023-01-31T12:04:02;99140.28;;;5.17;78.73
33845;BME280;20145;43.118;25.694;2023-01-31T12:06:37;99145.28;;;4.98;78.91
33845;BME280;20145;43.118;25.694;2023-01-31T12:09:19;99145.25;;;4.95;79.31
33845;BME280;20145;43.118;25.694;2023-01-31T12:11:56;99146.81;;;4.70;80.49
33845;BME280;20145;43.118;25.694;2023-01-31T12:14:22;99148.59;;;4.83;79.48
33845;BME280;20145;43.118;25.694;2023-01-31T12:16:53;99149.50;;;4.91;79.74
33845;BME280;20145;43.118;25.694;2023-01-31T12:19:23;99148.59;;;4.80;79.90
33845;BME280;20145;43.118;25.694;2023-01-31T12:25:43;99149.63;;;5.08;80.39
33845;BME280;20145;43.118;25.694;2023-01-31T12:33:12;99152.28;;;5.28;78.81
33845;BME280;20145;43.118;25.694;2023-01-31T12:57:28;99168.38;;;5.10;80.80
33845;BME280;20145;43.118;25.694;2023-01-31T13:03:18;99174.31;;;5.09;81.13
33845;BME280;20145;43.118;25.694;2023-01-31T13:05:30;99173.50;;;5.10;80.81
33845;BME280;20145;43.118;25.694;2023-01-31T13:08:05;99179.47;;;5.11;82.03
33845;BME280;20145;43.118;25.694;2023-01-31T13:10:39;99182.81;;;4.99;81.71
33845;BME280;20145;43.118;25.694;2023-01-31T13:13:19;99186.91;;;4.82;82.83
33845;BME280;20145;43.118;25.694;2023-01-31T13:16:10;99178.22;;;4.57;84.87
33845;BME280;20145;43.118;25.694;2023-01-31T13:18:39;99201.72;;;4.20;87.01
33845;BME280;20145;43.118;25.694;2023-01-31T13:21:13;99189.72;;;4.10;87.84
33845;BME280;20145;43.118;25.694;2023-01-31T13:23:53;99190.56;;;4.11;87.95
33845;BME280;20145;43.118;25.694;2023-01-31T13:26:24;99200.91;;;4.24;88.72
33845;BME280;20145;43.118;25.694;2023-01-31T13:29:04;99201.94;;;4.42;88.46
33845;BME280;20145;43.118;25.694;2023-01-31T13:32:00;99204.59;;;4.56;87.19
33845;BME280;20145;43.118;25.694;2023-01-31T13:34:47;99204.75;;;4.73;86.63
33845;BME280;20145;43.118;25.694;2023-01-31T13:37:15;99207.38;;;4.85;86.62
33845;BME280;20145;43.118;25.694;2023-01-31T13:39:50;99213.28;;;4.76;85.37
33845;BME280;20145;43.118;25.694;2023-01-31T13:42:18;99210.78;;;4.81;86.63
33845;BME280;20145;43.118;25.694;2023-01-31T13:44:45;99209.88;;;4.76;85.77
33845;BME280;20145;43.118;25.694;2023-01-31T13:47:22;99211.63;;;4.80;86.10
33845;BME280;20145;43.118;25.694;2023-01-31T13:52:38;99214.13;;;4.74;85.94
33845;BME280;20145;43.118;25.694;2023-01-31T13:55:14;99212.38;;;4.66;85.61
33845;BME280;20145;43.118;25.694;2023-01-31T13:57:57;99205.47;;;4.59;86.78
33845;BME280;20145;43.118;25.694;2023-01-31T14:08:27;99204.66;;;4.60;86.58
33845;BME280;20145;43.118;25.694;2023-01-31T14:10:55;99209.75;;;4.59;87.21
33845;BME280;20145;43.118;25.694;2023-01-31T14:15:59;99209.69;;;4.54;87.84
33845;BME280;20145;43.118;25.694;2023-01-31T14:24:00;99205.25;;;4.35;88.25
33845;BME280;20145;43.118;25.694;2023-01-31T14:26:52;99217.19;;;4.33;88.69
33845;BME280;20145;43.118;25.694;2023-01-31T14:29:21;99219.69;;;4.31;89.78
33845;BME280;20145;43.118;25.694;2023-01-31T14:31:48;99230.75;;;4.29;89.87
33845;BME280;20145;43.118;25.694;2023-01-31T14:34:20;99218.00;;;4.30;89.29
33845;BME280;20145;43.118;25.694;2023-01-31T14:45:41;99243.16;;;4.80;87.66
33845;BME280;20145;43.118;25.694;2023-01-31T14:53:58;99254.44;;;5.05;86.74
33845;BME280;20145;43.118;25.694;2023-01-31T14:59:27;99257.06;;;5.16;85.96
33845;BME280;20145;43.118;25.694;2023-01-31T15:01:54;99271.56;;;5.16;86.45
33845;BME280;20145;43.118;25.694;2023-01-31T15:04:22;99282.63;;;5.18;86.59
33845;BME280;20145;43.118;25.694;2023-01-31T15:06:51;99276.69;;;5.20;86.67
33845;BME280;20145;43.118;25.694;2023-01-31T15:09:34;99274.16;;;5.23;86.53
33845;BME280;20145;43.118;25.694;2023-01-31T15:11:59;99279.28;;;5.22;86.57
33845;BME280;20145;43.118;25.694;2023-01-31T15:19:48;99283.41;;;5.09;85.26
33845;BME280;20145;43.118;25.694;2023-01-31T15:22:16;99281.66;;;5.00;85.47
33845;BME280;20145;43.118;25.694;2023-01-31T15:24:54;99293.41;;;4.80;84.06
33845;BME280;20145;43.118;25.694;2023-01-31T15:27:28;99291.66;;;4.74;84.93
33845;BME280;20145;43.118;25.694;2023-01-31T15:35:50;99309.38;;;4.59;85.17
33845;BME280;20145;43.118;25.694;2023-01-31T15:43:47;99317.78;;;4.48;84.47
33845;BME280;20145;43.118;25.694;2023-01-31T15:46:27;99321.81;;;4.28;85.33
33845;BME280;20145;43.118;25.694;2023-01-31T15:48:54;99319.22;;;4.27;85.44
33845;BME280;20145;43.118;25.694;2023-01-31T15:51:20;99329.47;;;4.28;85.80
33845;BME280;20145;43.118;25.694;2023-01-31T15:53:46;99327.72;;;4.22;86.04